Time;durP1;ratioP1;P1;durP2;ratioP2;P2;SDS_P1;SDS_P2;PMS_P1;PMS_P2;Temp;Humidity;BMP_temperature;BMP_pressure;BME280_temperature;BME280_humidity;BME280_pressure;Samples;Min_cycle;Max_cycle;Signal;HPM_P1;HPM_P2
2021/12/14 00:02:13;;;;;;;93.10;33.70;;;;;;;-1.63;70.91;101329.20;126667;1313;109215;-86
2021/12/14 00:05:22;;;;;;;93.90;31.10;;;;;;;-1.60;70.82;101334.88;126671;1312;108796;-84
2021/12/14 00:08:35;;;;;;;92.60;32.80;;;;;;;-1.49;71.00;101319.85;126998;1313;108711;-83
2021/12/14 00:11:56;;;;;;;86.50;32.20;;;;;;;-1.35;70.78;101321.33;126977;1309;108778;-80
2021/12/14 00:15:10;;;;;;;94.00;32.90;;;;;;;-1.28;70.70;101328.59;127026;1313;107443;-79
2021/12/14 00:18:16;;;;;;;88.40;32.50;;;;;;;-1.20;70.87;101322.91;126923;1310;108815;-79
2021/12/14 00:21:29;;;;;;;85.60;32.40;;;;;;;-1.10;70.83;101329.23;127075;1307;108508;-80
2021/12/14 00:24:36;;;;;;;81.40;31.70;;;;;;;-1.07;70.58;101331.58;126486;1314;109270;-78
2021/12/14 00:27:41;;;;;;;90.50;32.60;;;;;;;-1.09;70.88;101338.96;126831;1313;107752;-77
2021/12/14 00:30:49;;;;;;;89.20;34.20;;;;;;;-1.12;70.66;101336.47;126749;1309;108902;-81
2021/12/14 00:34:00;;;;;;;84.60;32.40;;;;;;;-1.17;70.67;101341.33;126951;1309;108731;-79
2021/12/14 00:37:06;;;;;;;85.90;33.00;;;;;;;-1.19;70.67;101345.23;126937;1309;108797;-81
2021/12/14 00:40:18;;;;;;;76.90;31.00;;;;;;;-1.21;71.09;101347.05;127093;1314;108923;-81
2021/12/14 00:43:24;;;;;;;84.40;33.20;;;;;;;-1.21;70.95;101353.31;127044;1313;108850;-81
2021/12/14 00:46:30;;;;;;;84.50;34.30;;;;;;;-1.18;71.21;101358.83;127151;1313;106851;-80
2021/12/14 00:49:36;;;;;;;86.80;33.30;;;;;;;-1.21;71.07;101362.05;126903;1315;106850;-82
2021/12/14 00:52:43;;;;;;;83.10;31.80;;;;;;;-1.21;71.18;101355.78;127139;1315;107750;-83
2021/12/14 00:55:52;;;;;;;88.20;33.00;;;;;;;-1.20;71.04;101357.14;127101;1310;108732;-83
2021/12/14 00:58:57;;;;;;;91.00;32.40;;;;;;;-1.22;71.00;101360.35;127047;1311;109719;-84
2021/12/14 01:02:09;;;;;;;89.30;32.00;;;;;;;-1.23;70.99;101352.69;127064;1315;108835;-82
2021/12/14 01:05:20;;;;;;;88.70;32.60;;;;;;;-1.20;71.42;101350.16;127116;1313;108991;-82
2021/12/14 01:08:29;;;;;;;83.00;30.20;;;;;;;-1.14;71.30;101348.77;126906;1312;108842;-81
2021/12/14 01:11:42;;;;;;;85.60;31.20;;;;;;;-1.08;71.45;101340.68;126837;1310;108726;-83
2021/12/14 01:14:51;;;;;;;;;;;;;;;-0.99;71.44;101341.58;127097;1315;108920;-84
2021/12/14 01:18:15;;;;;;;74.40;29.30;;;;;;;-0.91;71.30;101336.61;127008;1315;108888;-82
2021/12/14 01:21:39;;;;;;;81.30;31.30;;;;;;;-0.87;71.24;101336.83;127046;1313;108944;-81
2021/12/14 01:25:02;;;;;;;82.20;31.80;;;;;;;-0.86;71.33;101336.61;127071;1315;107756;-82
2021/12/14 01:28:12;;;;;;;84.00;32.80;;;;;;;-0.86;71.53;101330.84;127064;1313;108865;-80
2021/12/14 01:31:26;;;;;;;87.50;33.10;;;;;;;-0.84;71.61;101325.53;127111;1313;109001;-83
2021/12/14 01:34:35;;;;;;;84.80;33.50;;;;;;;-0.84;71.68;101324.14;126883;1313;108885;-79
2021/12/14 01:37:46;;;;;;;85.50;32.80;;;;;;;-0.84;71.81;101325.37;126476;1313;109136;-83
2021/12/14 01:40:56;;;;;;;80.20;31.70;;;;;;;-0.87;71.67;101326.33;127039;1309;108812;-82
2021/12/14 01:44:07;;;;;;;80.60;31.30;;;;;;;-0.88;71.69;101326.54;127053;1315;108877;-81
2021/12/14 01:47:19;;;;;;;;;;;;;;;-0.89;71.92;101322.55;127029;1315;108748;-81
2021/12/14 01:50:38;;;;;;;75.30;29.10;;;;;;;-0.91;71.83;101321.91;127099;1310;108912;-82
2021/12/14 01:54:04;;;;;;;93.80;32.60;;;;;;;-0.92;72.18;101318.13;127152;1313;108929;-79
2021/12/14 01:57:13;;;;;;;90.10;32.50;;;;;;;-0.89;72.17;101312.96;127136;1313;108788;-80
2021/12/14 02:00:25;;;;;;;84.20;32.00;;;;;;;-0.87;72.31;101315.32;127037;1309;109022;-84
2021/12/14 02:03:36;;;;;;;87.40;30.20;;;;;;;-0.76;72.32;101318.27;126830;1311;108907;-80
2021/12/14 02:06:43;;;;;;;80.00;30.20;;;;;;;-0.66;72.12;101320.18;127013;1304;173292;-82
2021/12/14 02:09:56;;;;;;;79.90;30.60;;;;;;;-0.56;72.20;101323.48;126934;1313;109075;-81
2021/12/14 02:13:02;;;;;;;76.30;30.50;;;;;;;-0.49;72.12;101327.77;126872;1309;108991;-79
2021/12/14 02:16:11;;;;;;;78.10;30.80;;;;;;;-0.47;71.93;101327.90;126940;1313;108929;-79
2021/12/14 02:19:18;;;;;;;76.60;30.60;;;;;;;-0.43;72.03;101325.81;126986;1310;108893;-79
2021/12/14 02:22:26;;;;;;;77.50;30.30;;;;;;;-0.42;72.04;101329.27;126982;1313;108832;-78
2021/12/14 02:25:32;;;;;;;73.50;30.60;;;;;;;-0.39;72.25;101328.64;126943;1316;106773;-78
2021/12/14 02:28:38;;;;;;;70.30;30.30;;;;;;;-0.36;72.32;101329.05;126992;1315;108893;-81
2021/12/14 02:31:43;;;;;;;66.90;28.90;;;;;;;-0.34;72.13;101326.56;127003;1315;108886;-77
2021/12/14 02:34:53;;;;;;;73.00;29.80;;;;;;;-0.34;72.17;101324.27;127045;1311;108513;-79
2021/12/14 02:38:02;;;;;;;70.00;28.70;;;;;;;-0.33;72.22;101321.96;127016;1316;108865;-80
2021/12/14 02:41:10;;;;;;;88.30;33.50;;;;;;;-0.33;72.15;101312.16;126968;1315;108745;-79
2021/12/14 02:44:29;;;;;;;82.80;30.30;;;;;;;-0.30;72.43;101308.03;126686;1315;108995;-80
2021/12/14 02:47:34;;;;;;;80.80;30.70;;;;;;;-0.29;72.40;101303.45;126603;1313;107594;-81
2021/12/14 02:50:40;;;;;;;76.60;29.60;;;;;;;-0.28;72.29;101302.01;126929;1315;108760;-81
2021/12/14 02:53:49;;;;;;;77.30;31.20;;;;;;;-0.20;72.47;101302.22;126847;1316;108853;-82
2021/12/14 02:56:58;;;;;;;75.30;31.00;;;;;;;-0.14;72.41;101303.90;126981;1310;108919;-82
2021/12/14 03:00:05;;;;;;;76.20;31.60;;;;;;;-0.11;72.44;101312.55;126962;1313;108901;-79
2021/12/14 03:03:12;;;;;;;82.40;32.80;;;;;;;-0.10;72.67;101309.02;127437;1315;108779;-79
2021/12/14 03:06:23;;;;;;;77.60;31.90;;;;;;;-0.06;72.59;101309.23;126864;1315;109068;-78
2021/12/14 03:09:38;;;;;;;74.00;31.00;;;;;;;-0.04;72.69;101305.46;126651;1311;108966;-82
2021/12/14 03:12:49;;;;;;;74.40;31.60;;;;;;;-0.03;72.63;101304.20;126787;1309;108715;-80
2021/12/14 03:15:57;;;;;;;80.20;32.50;;;;;;;-0.06;72.74;101298.20;126630;1315;108804;-78
2021/12/14 03:19:06;;;;;;;91.10;34.90;;;;;;;-0.10;72.56;101297.13;126999;1313;108917;-78
2021/12/14 03:22:31;;;;;;;90.10;33.00;;;;;;;-0.14;72.94;101297.46;126600;1313;108690;-78
2021/12/14 03:25:41;;;;;;;77.90;29.10;;;;;;;-0.12;72.80;101290.57;126713;1311;108957;-77
2021/12/14 03:28:52;;;;;;;84.20;33.70;;;;;;;-0.08;72.79;101290.05;126793;1315;107458;-78
2021/12/14 03:32:01;;;;;;;76.00;31.20;;;;;;;-0.04;72.65;101287.98;126616;1313;108873;-80
2021/12/14 03:35:10;;;;;;;76.80;31.90;;;;;;;-0.01;72.69;101283.30;126993;1311;108795;-78
2021/12/14 03:38:19;;;;;;;79.50;32.60;;;;;;;-0.03;72.73;101279.86;126942;1315;108908;-82
2021/12/14 03:41:29;;;;;;;76.40;31.30;;;;;;;-0.04;72.75;101273.97;127006;1311;107229;-79
2021/12/14 03:44:37;;;;;;;73.30;31.50;;;;;;;-0.07;72.68;101276.19;127118;1316;108778;-82
2021/12/14 03:47:47;;;;;;;71.10;30.10;;;;;;;-0.10;72.74;101278.41;126891;1315;108885;-78
2021/12/14 03:50:54;;;;;;;70.90;30.00;;;;;;;-0.13;72.68;101277.47;126663;1315;107748;-80
2021/12/14 03:54:00;;;;;;;74.20;30.90;;;;;;;-0.16;72.66;101283.19;127118;1316;108843;-80
2021/12/14 03:57:07;;;;;;;85.60;32.80;;;;;;;-0.23;72.67;101285.91;127054;1314;108788;-82
2021/12/14 04:00:18;;;;;;;85.40;33.30;;;;;;;-0.27;73.00;101286.93;127122;1313;106774;-79
2021/12/14 04:03:29;;;;;;;82.40;31.70;;;;;;;-0.26;72.89;101285.31;127620;1311;108894;-79
2021/12/14 04:07:03;;;;;;;71.50;28.40;;;;;;;-0.21;72.85;101283.55;127031;1309;108783;-80
2021/12/14 04:10:14;;;;;;;78.60;30.10;;;;;;;-0.12;72.99;101280.94;126647;1316;107397;-84
2021/12/14 04:13:22;;;;;;;75.90;32.20;;;;;;;-0.05;72.91;101275.08;126738;1314;108830;-80
2021/12/14 04:16:28;;;;;;;77.60;31.20;;;;;;;0.01;72.79;101275.72;127007;1314;108850;-78
2021/12/14 04:19:35;;;;;;;79.20;32.60;;;;;;;0.03;72.76;101276.01;127083;1312;107385;-79
2021/12/14 04:22:48;;;;;;;83.80;33.40;;;;;;;0.02;72.84;101269.41;127086;1313;108863;-78
2021/12/14 04:25:54;;;;;;;;;;;;;;;0.02;72.69;101273.42;126986;1309;108895;-79
2021/12/14 04:29:03;;;;;;;76.10;29.80;;;;;;;-0.00;73.03;101267.89;127004;1315;108793;-78
2021/12/14 04:32:13;;;;;;;87.70;33.90;;;;;;;-0.02;72.97;101271.27;126851;1314;108778;-80
2021/12/14 04:35:20;;;;;;;85.50;35.40;;;;;;;-0.03;72.81;101273.06;126782;1315;108720;-79
2021/12/14 04:38:31;;;;;;;84.70;34.20;;;;;;;-0.07;72.95;101280.38;127558;1315;108749;-77
2021/12/14 04:51:59;;;;;;;94.40;35.00;;;;;;;-0.21;73.07;101295.59;127198;1309;108815;-76
2021/12/14 04:55:11;;;;;;;87.50;33.40;;;;;;;-0.11;73.19;101292.64;127201;1313;107640;-76
2021/12/14 04:58:26;;;;;;;82.30;31.60;;;;;;;-0.04;73.28;101290.58;127334;1309;108833;-76
2021/12/14 05:01:36;;;;;;;78.30;33.60;;;;;;;0.09;73.08;101294.65;127513;1309;108602;-78
2021/12/14 05:04:42;;;;;;;82.20;35.40;;;;;;;0.15;73.09;101291.62;127364;1308;108888;-76
2021/12/14 05:11:23;;;;;;;82.50;33.50;;;;;;;0.18;72.95;101280.65;126712;1313;108802;-77
2021/12/14 05:14:34;;;;;;;83.40;34.40;;;;;;;0.18;73.22;101276.79;126554;1309;108810;-79
2021/12/14 05:17:43;;;;;;;85.40;36.20;;;;;;;0.16;73.16;101274.40;126662;1309;108858;-77
2021/12/14 05:20:51;;;;;;;80.40;34.40;;;;;;;0.13;73.32;101274.53;126643;1312;107341;-77
2021/12/14 05:23:58;;;;;;;84.80;34.70;;;;;;;0.10;73.15;101271.85;126700;1310;109833;-78
2021/12/14 05:27:07;;;;;;;84.30;35.70;;;;;;;0.06;73.20;101267.14;126615;1315;108928;-78
2021/12/14 05:30:22;;;;;;;100.00;39.60;;;;;;;-0.00;73.25;101272.09;126704;1315;108793;-78
2021/12/14 05:33:48;;;;;;;90.00;35.50;;;;;;;-0.03;73.26;101275.34;126592;1310;109989;-78
2021/12/14 05:37:06;;;;;;;88.80;33.70;;;;;;;-0.03;73.24;101276.71;126617;1312;108898;-77
2021/12/14 05:40:25;;;;;;;87.70;34.90;;;;;;;-0.01;73.40;101280.52;127455;1309;108973;-77
2021/12/14 05:43:32;;;;;;;84.70;34.20;;;;;;;0.05;73.39;101278.35;126743;1309;108902;-77
2021/12/14 05:46:51;;;;;;;81.10;34.20;;;;;;;0.09;73.38;101274.55;127114;1309;109084;-77
2021/12/14 05:50:16;;;;;;;84.90;34.50;;;;;;;0.12;73.45;101269.35;126623;1315;108774;-77
2021/12/14 05:53:26;;;;;;;79.40;34.20;;;;;;;0.13;73.43;101266.84;126775;1316;107697;-77
2021/12/14 05:56:34;;;;;;;76.70;32.10;;;;;;;0.13;73.43;101268.23;126809;1309;108881;-79
2021/12/14 05:59:40;;;;;;;83.50;35.40;;;;;;;0.12;73.34;101267.92;126664;1312;106646;-73
2021/12/14 06:02:47;;;;;;;82.60;34.40;;;;;;;0.08;73.36;101270.20;126749;1309;108916;-72
2021/12/14 06:05:54;;;;;;;104.00;39.10;;;;;;;0.06;73.41;101264.50;126796;1313;108795;-74
2021/12/14 06:09:08;;;;;;;94.40;37.00;;;;;;;0.06;73.62;101261.54;126886;1309;108701;-74
2021/12/14 06:12:19;;;;;;;89.00;34.90;;;;;;;0.06;73.80;101257.69;126867;1312;108767;-74
2021/12/14 06:15:28;;;;;;;80.20;33.00;;;;;;;0.11;73.76;101252.42;126851;1314;108783;-74
2021/12/14 06:18:41;;;;;;;84.60;34.50;;;;;;;0.20;73.72;101254.46;126649;1311;108769;-75
2021/12/14 06:21:59;;;;;;;81.90;34.90;;;;;;;0.28;73.77;101250.32;126918;1310;108983;-74
2021/12/14 06:25:11;;;;;;;89.20;36.10;;;;;;;0.34;73.61;101247.26;126787;1309;108918;-73
2021/12/14 06:28:24;;;;;;;89.50;36.80;;;;;;;0.39;73.53;101246.70;126764;1309;109007;-73
2021/12/14 06:31:29;;;;;;;88.40;37.30;;;;;;;0.38;73.49;101245.70;126659;1310;108824;-73
2021/12/14 06:34:38;;;;;;;88.70;36.60;;;;;;;0.35;73.56;101241.63;126887;1310;109006;-74
2021/12/14 06:38:27;;;;;;;92.40;37.90;;;;;;;0.33;73.70;101239.80;126759;1309;108712;-74
2021/12/14 06:41:32;;;;;;;92.00;38.10;;;;;;;0.28;73.77;101237.38;126564;1311;108929;-74
2021/12/14 06:44:39;;;;;;;93.30;37.90;;;;;;;0.25;73.92;101233.81;126300;1310;108913;-73
2021/12/14 06:47:46;;;;;;;106.70;42.50;;;;;;;0.19;73.72;101235.45;126751;1313;108876;-73
2021/12/14 06:50:56;;;;;;;112.10;42.40;;;;;;;0.16;73.89;101238.21;126617;1309;108899;-73
2021/12/14 06:54:15;;;;;;;101.60;39.30;;;;;;;0.20;74.03;101243.11;126748;1313;108795;-74
2021/12/14 06:57:39;;;;;;;87.30;35.80;;;;;;;0.28;74.10;101243.33;127028;1310;108985;-74
2021/12/14 07:00:54;;;;;;;89.60;36.20;;;;;;;0.36;74.08;101236.67;127002;1312;107488;-74
2021/12/14 07:04:03;;;;;;;90.50;37.70;;;;;;;0.44;73.93;101232.87;126860;1310;108900;-74
2021/12/14 07:07:14;;;;;;;85.10;36.30;;;;;;;0.51;73.91;101234.81;126959;1310;108760;-74
2021/12/14 07:10:21;;;;;;;92.40;38.50;;;;;;;0.55;73.90;101234.67;126822;1307;108947;-73
2021/12/14 07:13:36;;;;;;;86.30;37.90;;;;;;;0.56;73.84;101232.67;126908;1310;109026;-75
2021/12/14 07:16:46;;;;;;;91.00;39.00;;;;;;;0.59;73.91;101228.52;126961;1309;109501;-73
2021/12/14 07:19:54;;;;;;;83.80;35.70;;;;;;;0.61;73.99;101226.70;127123;1310;108733;-73
2021/12/14 07:23:02;;;;;;;89.40;40.80;;;;;;;0.61;74.06;101226.21;126542;1315;108984;-74
2021/12/14 07:26:10;;;;;;;83.50;37.80;;;;;;;0.63;74.13;101227.16;126962;1309;108891;-74
2021/12/14 07:29:22;;;;;;;92.40;39.40;;;;;;;0.64;73.90;101226.40;127009;1314;108719;-74
2021/12/14 07:32:44;;;;;;;98.00;39.80;;;;;;;0.64;74.17;101226.77;126925;1310;108433;-74
2021/12/14 07:35:53;;;;;;;96.90;39.70;;;;;;;0.69;74.23;101232.16;126847;1309;109135;-73
2021/12/14 07:39:02;;;;;;;78.90;34.00;;;;;;;0.76;74.09;101233.79;126692;1307;108656;-74
2021/12/14 07:42:08;;;;;;;83.10;36.70;;;;;;;0.86;74.15;101237.38;126829;1309;107554;-73
2021/12/14 07:45:35;;;;;;;84.10;36.20;;;;;;;0.97;74.35;101241.44;126656;1309;108992;-74
2021/12/14 07:48:45;;;;;;;83.80;38.10;;;;;;;1.07;74.23;101246.10;126811;1313;108896;-73
2021/12/14 07:51:53;;;;;;;89.10;38.70;;;;;;;1.13;74.18;101245.99;126806;1310;108618;-71
2021/12/14 07:55:02;;;;;;;93.50;40.40;;;;;;;1.15;74.19;101241.15;126504;1309;106971;-74
2021/12/14 07:58:07;;;;;;;86.80;38.70;;;;;;;1.21;74.18;101240.05;126775;1309;108473;-73
2021/12/14 08:01:16;;;;;;;93.30;41.10;;;;;;;1.27;74.21;101236.98;126927;1309;108726;-74
2021/12/14 08:04:21;;;;;;;100.40;42.20;;;;;;;1.32;74.18;101240.26;126878;1309;108765;-74
2021/12/14 08:07:31;;;;;;;96.80;41.80;;;;;;;1.39;74.18;101240.13;126673;1309;107203;-74
2021/12/14 08:10:41;;;;;;;143.20;65.50;;;;;;;1.44;74.25;101236.18;126651;1309;108762;-74
2021/12/14 08:13:50;;;;;;;111.10;45.70;;;;;;;1.50;74.33;101237.30;126851;1309;108794;-74
2021/12/14 08:16:59;;;;;;;90.80;38.90;;;;;;;1.64;74.36;101232.27;126978;1309;108919;-73
2021/12/14 08:20:09;;;;;;;100.60;44.10;;;;;;;1.79;74.25;101231.23;126868;1309;108732;-73
2021/12/14 08:23:19;;;;;;;98.40;45.20;;;;;;;1.94;74.17;101232.30;126593;1313;108777;-72
2021/12/14 08:26:27;;;;;;;104.80;45.70;;;;;;;2.10;74.21;101232.04;126519;1309;108819;-74
2021/12/14 08:29:35;;;;;;;108.00;45.80;;;;;;;2.26;74.19;101230.18;126509;1312;108535;-74
2021/12/14 08:32:42;;;;;;;108.60;47.30;;;;;;;2.38;74.13;101228.58;126493;1310;108741;-73
2021/12/14 08:35:48;;;;;;;110.20;48.10;;;;;;;2.45;74.08;101231.02;126560;1310;107707;-73
2021/12/14 08:39:08;;;;;;;105.60;47.60;;;;;;;2.48;74.06;101238.77;126582;1310;108666;-73
2021/12/14 08:42:20;;;;;;;108.00;49.60;;;;;;;2.52;74.20;101241.55;126974;1310;109095;-74
2021/12/14 08:45:27;;;;;;;;;;;;;;;2.58;74.25;101241.62;127069;1309;108348;-74
2021/12/14 08:48:35;;;;;;;102.20;44.90;;;;;;;2.64;74.26;101243.58;127012;1310;109182;-73
2021/12/14 08:51:44;;;;;;;116.90;52.20;;;;;;;2.67;74.22;101240.42;126701;1310;107069;-73
2021/12/14 08:54:50;;;;;;;115.00;49.20;;;;;;;2.71;74.20;101226.89;126984;1309;108827;-73
2021/12/14 08:57:55;;;;;;;115.40;53.80;;;;;;;2.78;74.16;101221.45;126981;1309;108509;-75
2021/12/14 09:01:07;;;;;;;111.70;50.60;;;;;;;2.87;74.31;101222.55;126977;1309;109031;-74
2021/12/14 09:04:17;;;;;;;117.30;52.10;;;;;;;3.01;74.31;101216.90;126736;1313;108726;-74
2021/12/14 09:07:28;;;;;;;120.60;51.90;;;;;;;3.13;74.12;101215.41;126608;1312;108795;-72
2021/12/14 09:10:37;;;;;;;121.30;56.10;;;;;;;3.20;73.99;101219.09;126598;1309;108787;-75
2021/12/14 09:13:44;;;;;;;124.90;54.80;;;;;;;3.27;74.03;101207.64;126619;1309;108735;-74
2021/12/14 09:16:54;;;;;;;131.30;60.10;;;;;;;3.34;73.95;101196.36;126917;1309;108868;-73
2021/12/14 09:20:03;;;;;;;115.70;55.30;;;;;;;3.40;73.91;101191.98;126391;1309;106796;-73
2021/12/14 09:23:13;;;;;;;124.10;56.20;;;;;;;3.47;73.77;101195.81;126512;1309;109024;-74
2021/12/14 09:26:21;;;;;;;143.50;68.10;;;;;;;3.48;73.78;101199.75;126509;1309;108856;-74
2021/12/14 09:29:28;;;;;;;235.50;89.10;;;;;;;3.51;73.86;101201.23;126753;1309;109042;-74
2021/12/14 09:32:36;;;;;;;239.60;95.80;;;;;;;3.63;74.05;101203.91;126463;1315;109029;-73
2021/12/14 09:35:43;;;;;;;131.00;58.70;;;;;;;3.76;73.94;101198.42;126590;1309;108720;-74
2021/12/14 09:38:52;;;;;;;121.90;56.10;;;;;;;3.87;73.87;101191.84;126831;1308;108643;-74
2021/12/14 09:41:59;;;;;;;115.00;52.80;;;;;;;3.98;73.65;101184.34;126894;1310;108690;-74
2021/12/14 09:45:10;;;;;;;124.40;58.40;;;;;;;4.04;73.74;101184.54;126989;1310;108805;-75
2021/12/14 09:48:22;;;;;;;116.60;55.70;;;;;;;4.08;73.74;101180.57;126824;1309;108754;-75
2021/12/14 09:51:28;;;;;;;;;;;;;;;4.10;73.61;101174.98;126960;1309;108951;-75
2021/12/14 09:54:34;;;;;;;112.50;54.00;;;;;;;4.14;73.60;101175.70;126666;1309;108860;-74
2021/12/14 09:57:43;;;;;;;120.40;54.00;;;;;;;4.14;73.46;101176.73;126793;1309;108869;-74
2021/12/14 10:00:56;;;;;;;111.30;53.00;;;;;;;4.08;73.44;101178.68;126681;1309;108764;-74
2021/12/14 10:04:06;;;;;;;115.50;54.00;;;;;;;4.03;73.40;101179.82;126749;1309;108875;-74
2021/12/14 10:07:13;;;;;;;117.40;55.70;;;;;;;4.03;73.41;101175.77;126413;1307;255502;-75
2021/12/14 10:10:19;;;;;;;118.20;52.70;;;;;;;3.99;73.45;101168.08;126545;1313;108846;-74
2021/12/14 10:13:25;;;;;;;123.10;55.30;;;;;;;3.94;73.47;101166.10;126795;1309;108951;-73
2021/12/14 10:16:31;;;;;;;110.00;52.00;;;;;;;3.96;73.41;101165.63;126793;1309;108807;-75
2021/12/14 10:19:37;;;;;;;119.80;53.70;;;;;;;4.03;73.52;101166.27;126863;1310;108820;-74
2021/12/14 10:22:43;;;;;;;118.20;54.50;;;;;;;4.11;73.55;101164.92;126569;1310;108728;-74
2021/12/14 10:25:51;;;;;;;112.90;53.70;;;;;;;4.21;73.38;101163.10;126843;1309;108772;-75
2021/12/14 10:28:59;;;;;;;120.20;57.40;;;;;;;4.26;73.27;101162.80;126838;1315;108795;-74
2021/12/14 10:32:09;;;;;;;116.80;54.20;;;;;;;4.25;73.42;101157.23;126711;1315;108726;-72
2021/12/14 10:35:21;;;;;;;118.60;54.50;;;;;;;4.26;73.31;101153.33;126823;1309;107369;-74
2021/12/14 10:38:34;;;;;;;122.60;58.90;;;;;;;4.23;73.34;101149.95;126592;1309;108417;-73
2021/12/14 10:45:09;;;;;;;119.30;56.30;;;;;;;4.10;73.40;101150.00;126552;1314;108836;-74
2021/12/14 10:48:15;;;;;;;124.40;58.00;;;;;;;4.04;73.38;101151.80;126832;1309;108700;-74
2021/12/14 10:51:25;;;;;;;122.40;54.60;;;;;;;3.98;73.34;101151.94;126791;1309;108590;-74
2021/12/14 10:54:32;;;;;;;134.70;59.00;;;;;;;3.96;73.35;101152.09;126507;1309;109674;-74
2021/12/14 10:57:38;;;;;;;128.70;55.00;;;;;;;3.97;73.47;101147.29;126897;1309;108760;-74
2021/12/14 11:00:47;;;;;;;158.40;73.50;;;;;;;4.01;73.50;101144.20;126754;1309;108851;-74
2021/12/14 11:03:58;;;;;;;137.60;63.70;;;;;;;4.03;73.30;101140.41;126891;1309;108892;-74
2021/12/14 11:07:06;;;;;;;139.00;63.50;;;;;;;4.03;73.44;101142.37;126532;1309;108465;-73
2021/12/14 11:10:17;;;;;;;134.10;60.70;;;;;;;4.02;73.36;101138.49;126739;1309;108779;-73
2021/12/14 11:13:25;;;;;;;134.40;61.90;;;;;;;3.99;73.35;101139.57;126788;1309;108576;-74
2021/12/14 11:18:08;;;;;;;131.80;61.30;;;;;;;4.01;73.26;101141.43;126708;1310;108914;-74
2021/12/14 11:20:02;;;;;;;140.20;60.40;;;;;;;4.00;73.37;101144.11;126899;1310;108935;-74
2021/12/14 11:23:11;;;;;;;187.50;83.80;;;;;;;3.96;73.33;101141.31;126831;1309;108829;-74
2021/12/14 11:26:19;;;;;;;162.50;76.10;;;;;;;3.94;73.55;101138.98;126984;1309;108454;-74
2021/12/14 11:29:25;;;;;;;143.70;60.70;;;;;;;3.96;73.46;101138.36;126906;1310;108710;-74
2021/12/14 11:32:30;;;;;;;150.90;65.20;;;;;;;3.99;73.55;101140.30;126938;1310;108750;-75
2021/12/14 11:35:40;;;;;;;135.90;58.30;;;;;;;4.03;73.46;101144.94;126641;1312;109082;-74
2021/12/14 11:38:52;;;;;;;230.70;88.30;;;;;;;4.07;73.38;101137.69;126507;1310;108738;-74
2021/12/14 11:41:58;;;;;;;;;;;;;;;4.09;73.58;101133.17;126385;1310;107467;-74
2021/12/14 11:45:08;;;;;;;143.00;61.10;;;;;;;4.11;73.38;101127.42;126506;1312;109244;-74
2021/12/14 11:48:15;;;;;;;143.90;61.90;;;;;;;4.15;73.43;101122.64;126702;1312;108547;-73
2021/12/14 11:51:23;;;;;;;147.70;66.10;;;;;;;4.14;73.42;101115.27;126690;1310;108414;-74
2021/12/14 11:54:29;;;;;;;146.20;63.40;;;;;;;4.10;73.57;101115.17;126615;1310;107268;-74
2021/12/14 11:57:34;;;;;;;143.20;64.10;;;;;;;4.06;73.47;101115.05;126447;1311;108943;-73
2021/12/14 12:00:44;;;;;;;144.10;62.50;;;;;;;4.04;73.52;101117.30;126580;1310;108808;-74
2021/12/14 12:03:56;;;;;;;149.60;64.00;;;;;;;4.02;73.46;101117.57;126354;1309;108914;-73
2021/12/14 12:10:40;;;;;;;160.50;64.40;;;;;;;3.97;73.68;101111.32;126341;1312;108867;-73
2021/12/14 12:13:48;;;;;;;151.80;60.40;;;;;;;4.01;73.74;101105.67;126622;1312;108937;-74
2021/12/14 12:16:56;;;;;;;158.70;64.40;;;;;;;4.06;73.62;101110.27;126406;1310;108815;-73
2021/12/14 12:20:14;;;;;;;151.80;62.10;;;;;;;4.09;73.62;101111.33;126406;1312;108222;-73
2021/12/14 12:23:24;;;;;;;154.80;62.50;;;;;;;4.09;73.62;101110.13;126536;1312;107633;-72
2021/12/14 12:26:30;;;;;;;146.50;62.60;;;;;;;4.06;73.66;101108.70;126828;1311;108810;-74
2021/12/14 12:29:36;;;;;;;173.00;74.30;;;;;;;4.03;73.71;101100.09;126640;1312;108801;-73
2021/12/14 12:32:42;;;;;;;177.30;69.20;;;;;;;3.96;73.63;101097.30;126715;1309;108720;-73
2021/12/14 12:35:50;;;;;;;162.10;67.00;;;;;;;3.87;73.73;101100.13;126474;1309;108952;-74
2021/12/14 12:38:59;;;;;;;170.20;69.30;;;;;;;3.79;73.84;101091.98;126661;1309;109038;-74
2021/12/14 12:42:07;;;;;;;188.60;71.60;;;;;;;3.72;73.85;101088.50;126759;1309;108865;-73
2021/12/14 12:45:30;;;;;;;171.80;63.70;;;;;;;3.67;73.95;101089.13;126717;1315;108786;-74
2021/12/14 12:48:48;;;;;;;168.10;65.90;;;;;;;3.64;74.09;101085.81;126732;1309;108495;-73
2021/12/14 12:52:06;;;;;;;168.00;64.90;;;;;;;3.64;74.08;101080.86;126601;1309;108736;-73
2021/12/14 12:55:16;;;;;;;158.40;62.20;;;;;;;3.66;74.01;101073.02;126504;1309;107271;-73
2021/12/14 12:58:24;;;;;;;159.40;62.70;;;;;;;3.66;74.17;101068.94;126382;1309;108596;-74
2021/12/14 13:01:30;;;;;;;164.20;62.60;;;;;;;3.65;73.96;101067.77;126791;1309;109790;-75
2021/12/14 13:04:43;;;;;;;178.30;64.70;;;;;;;3.63;74.10;101064.58;126661;1309;109060;-74
2021/12/14 13:07:53;;;;;;;161.20;61.40;;;;;;;3.56;74.17;101062.87;126559;1309;108197;-74
2021/12/14 13:11:01;;;;;;;186.50;66.70;;;;;;;3.49;74.32;101056.54;126608;1309;108648;-75
2021/12/14 13:14:09;;;;;;;182.60;69.10;;;;;;;3.45;74.27;101056.10;126971;1309;108828;-74
2021/12/14 13:17:19;;;;;;;160.20;56.40;;;;;;;3.42;74.36;101064.34;126936;1309;108947;-74
2021/12/14 13:20:32;;;;;;;158.90;60.80;;;;;;;3.40;74.44;101069.39;126781;1309;108802;-73
2021/12/14 13:23:48;;;;;;;163.50;60.10;;;;;;;3.42;74.34;101069.97;126865;1309;108680;-74
2021/12/14 13:26:58;;;;;;;162.20;58.70;;;;;;;3.41;74.45;101068.79;126887;1309;108909;-74
2021/12/14 13:30:07;;;;;;;172.30;62.10;;;;;;;3.39;74.35;101070.65;126847;1309;109007;-74
2021/12/14 13:33:28;;;;;;;164.10;60.20;;;;;;;3.37;74.46;101077.48;126884;1309;109026;-74
2021/12/14 13:36:33;;;;;;;163.10;60.60;;;;;;;3.34;74.48;101076.76;126731;1310;109018;-74
2021/12/14 13:39:40;;;;;;;171.10;58.80;;;;;;;3.28;74.58;101069.69;126583;1309;108871;-72
2021/12/14 13:43:00;;;;;;;169.60;61.00;;;;;;;3.23;74.71;101071.89;126479;1309;108851;-74
2021/12/14 13:46:07;;;;;;;156.00;54.30;;;;;;;3.23;74.68;101072.46;126485;1311;108733;-74
2021/12/14 13:49:12;;;;;;;160.10;59.10;;;;;;;3.23;74.86;101075.09;126532;1309;108874;-74
2021/12/14 13:52:19;;;;;;;154.40;60.20;;;;;;;3.24;74.72;101073.80;126581;1310;106988;-74
2021/12/14 13:55:33;;;;;;;164.50;60.70;;;;;;;3.23;74.72;101073.70;126818;1309;107419;-74
2021/12/14 13:58:39;;;;;;;167.60;61.10;;;;;;;3.22;74.75;101080.09;128019;1309;108985;-77
2021/12/14 14:01:47;;;;;;;157.30;58.20;;;;;;;3.15;74.83;101081.47;127108;1310;108806;-75
2021/12/14 14:04:53;;;;;;;177.20;61.30;;;;;;;3.08;74.83;101078.70;126957;1309;108913;-76
2021/12/14 14:08:05;;;;;;;175.40;60.20;;;;;;;3.05;74.72;101083.65;126478;1315;106691;-75
2021/12/14 14:11:23;;;;;;;138.90;51.10;;;;;;;3.05;74.85;101085.56;126565;1309;109037;-75
2021/12/14 14:14:33;;;;;;;153.10;57.30;;;;;;;3.06;74.92;101085.66;126563;1315;108745;-76
2021/12/14 14:17:46;;;;;;;169.10;61.00;;;;;;;3.08;75.03;101080.49;126827;1309;109016;-75
2021/12/14 14:20:53;;;;;;;151.80;57.40;;;;;;;3.06;75.04;101083.38;126814;1309;108662;-75
2021/12/14 14:24:00;;;;;;;154.30;59.40;;;;;;;3.05;75.09;101077.11;126687;1309;107317;-75
2021/12/14 14:27:20;;;;;;;153.70;59.80;;;;;;;2.99;75.11;101077.27;126689;1309;108771;-76
2021/12/14 14:30:43;;;;;;;160.70;59.00;;;;;;;2.93;75.16;101079.16;126407;1309;108872;-76